createdAt,value
2023-05-17T00:00:31.486Z,12.61
2023-05-17T00:03:18.773Z,12.65
2023-05-17T00:05:46.647Z,12.59
2023-05-17T00:08:15.103Z,12.65
2023-05-17T00:10:43.770Z,12.60
2023-05-17T00:13:11.770Z,12.55
2023-05-17T00:15:39.502Z,12.61
2023-05-17T00:18:08.024Z,12.55
2023-05-17T00:20:36.717Z,12.58
2023-05-17T00:23:05.181Z,12.58
2023-05-17T00:25:32.947Z,12.56
2023-05-17T00:28:00.976Z,12.44
2023-05-17T00:30:29.480Z,12.52
2023-05-17T00:32:57.936Z,12.49
2023-05-17T00:35:26.794Z,12.46
2023-05-17T00:37:55.301Z,12.47
2023-05-17T00:40:24.714Z,12.54
2023-05-17T00:42:52.810Z,12.43
2023-05-17T00:45:23.387Z,12.37
2023-05-17T00:47:51.920Z,12.46
2023-05-17T00:50:19.764Z,12.39
2023-05-17T00:52:48.178Z,12.47
2023-05-17T00:55:16.005Z,12.48
2023-05-17T00:57:43.886Z,12.40
2023-05-17T01:00:12.488Z,12.39
2023-05-17T01:02:40.937Z,12.42
2023-05-17T01:05:09.690Z,12.45
2023-05-17T01:07:38.198Z,12.51
2023-05-17T01:10:07.060Z,12.46
2023-05-17T01:13:08.605Z,12.47
2023-05-17T01:15:39.824Z,12.44
2023-05-17T01:18:40.996Z,12.40
2023-05-17T01:21:36.079Z,12.43
2023-05-17T01:24:26.931Z,12.46
2023-05-17T01:26:56.188Z,12.46
2023-05-17T01:29:27.766Z,12.43
2023-05-17T01:31:57.506Z,12.31
2023-05-17T01:34:27.090Z,12.29
2023-05-17T01:36:55.497Z,12.20
2023-05-17T01:39:23.644Z,12.15
2023-05-17T01:42:30.452Z,12.08
2023-05-17T01:45:10.808Z,12.05
2023-05-17T01:47:49.438Z,11.94
2023-05-17T01:50:20.109Z,11.88
2023-05-17T01:52:54.598Z,11.92
2023-05-17T01:55:43.346Z,11.92
2023-05-17T01:58:12.681Z,11.91
2023-05-17T02:00:44.391Z,11.89
2023-05-17T02:03:19.709Z,11.89
2023-05-17T02:05:51.559Z,11.83
2023-05-17T02:08:19.471Z,11.81
2023-05-17T02:10:47.546Z,11.77
2023-05-17T02:13:15.193Z,11.82
2023-05-17T02:15:43.247Z,11.78
2023-05-17T02:18:12.238Z,11.78
2023-05-17T02:20:40.514Z,11.66
2023-05-17T02:23:08.525Z,11.72
2023-05-17T02:25:37.029Z,11.77
2023-05-17T02:28:06.655Z,11.74
2023-05-17T02:30:41.081Z,11.71
2023-05-17T02:33:09.528Z,11.72
2023-05-17T02:35:38.273Z,11.75
2023-05-17T02:38:06.146Z,11.71
2023-05-17T02:40:34.094Z,11.72
2023-05-17T02:43:04.279Z,11.72
2023-05-17T02:45:37.074Z,11.71
2023-05-17T02:48:04.955Z,11.69
2023-05-17T02:50:33.260Z,11.67
2023-05-17T02:53:01.426Z,11.69
2023-05-17T02:55:29.576Z,11.72
2023-05-17T02:57:57.852Z,11.64
2023-05-17T03:00:26.251Z,11.62
2023-05-17T03:02:54.554Z,11.71
2023-05-17T03:05:22.950Z,11.72
2023-05-17T03:07:53.104Z,11.71
2023-05-17T03:10:22.193Z,11.73
2023-05-17T03:12:50.404Z,11.77
2023-05-17T03:15:22.365Z,11.74
2023-05-17T03:17:50.887Z,11.73
2023-05-17T03:20:19.725Z,11.67
2023-05-17T03:22:49.542Z,11.73
2023-05-17T03:25:18.847Z,11.71
2023-05-17T03:27:47.090Z,11.66
2023-05-17T03:30:16.143Z,11.65
2023-05-17T03:32:46.021Z,11.65
2023-05-17T03:35:15.971Z,11.69
2023-05-17T03:37:48.082Z,11.70
2023-05-17T03:40:16.672Z,11.67
2023-05-17T03:42:45.190Z,11.61
2023-05-17T03:45:13.953Z,11.62
2023-05-17T03:47:43.706Z,11.63
2023-05-17T03:50:13.254Z,11.61
2023-05-17T03:52:42.209Z,11.59
2023-05-17T03:55:10.901Z,11.58
2023-05-17T03:57:39.134Z,11.58
2023-05-17T04:00:12.665Z,11.63
2023-05-17T04:02:42.988Z,11.55
2023-05-17T04:05:13.592Z,11.60
2023-05-17T04:07:43.964Z,11.62
2023-05-17T04:10:14.066Z,11.60
2023-05-17T04:12:41.959Z,11.64
2023-05-17T04:15:11.130Z,11.67
2023-05-17T04:17:41.403Z,11.65
2023-05-17T04:20:11.414Z,11.70
2023-05-17T04:22:39.166Z,11.69
2023-05-17T04:25:08.540Z,11.66
2023-05-17T04:27:38.112Z,11.63
2023-05-17T04:30:09.624Z,11.65
2023-05-17T04:32:46.765Z,11.63
2023-05-17T04:35:16.030Z,11.64
2023-05-17T04:37:47.457Z,11.63
2023-05-17T04:40:22.500Z,11.61
2023-05-17T04:42:52.385Z,11.54
2023-05-17T04:45:21.691Z,11.54
2023-05-17T04:47:51.472Z,11.53
2023-05-17T04:50:20.451Z,11.53
2023-05-17T04:52:48.635Z,11.57
2023-05-17T04:55:16.772Z,11.56
2023-05-17T04:57:45.128Z,11.59
2023-05-17T05:00:17.785Z,11.63
2023-05-17T05:02:52.259Z,11.61
2023-05-17T05:05:21.046Z,11.63
2023-05-17T05:07:49.674Z,11.59
2023-05-17T05:10:18.544Z,11.56
2023-05-17T05:12:47.105Z,11.56
2023-05-17T05:15:16.642Z,11.51
2023-05-17T05:17:51.635Z,11.57
2023-05-17T05:20:21.984Z,11.52
2023-05-17T05:22:50.119Z,11.54
2023-05-17T05:25:19.785Z,11.59
2023-05-17T05:27:49.267Z,11.55
2023-05-17T05:30:22.646Z,11.50
2023-05-17T05:32:54.264Z,11.48
2023-05-17T05:35:29.364Z,11.50
2023-05-17T05:37:59.337Z,11.49
2023-05-17T05:40:28.451Z,11.48
2023-05-17T05:42:56.913Z,11.50
2023-05-17T05:45:26.239Z,11.44
2023-05-17T05:47:59.793Z,11.41
2023-05-17T05:50:30.935Z,11.40
2023-05-17T05:53:17.277Z,11.42
2023-05-17T05:55:52.781Z,11.47
2023-05-17T05:58:22.000Z,11.54
2023-05-17T06:00:51.481Z,11.52
2023-05-17T06:03:19.931Z,11.60
2023-05-17T06:05:48.403Z,11.63
2023-05-17T06:08:16.636Z,11.64
2023-05-17T06:10:46.899Z,11.62
2023-05-17T06:13:15.076Z,11.62
2023-05-17T06:15:43.547Z,11.59
2023-05-17T06:18:11.085Z,11.72
2023-05-17T06:20:39.985Z,11.71
2023-05-17T06:23:08.076Z,11.82
2023-05-17T06:25:36.003Z,11.87
2023-05-17T06:28:04.690Z,11.90
2023-05-17T06:30:33.229Z,11.81
2023-05-17T06:33:01.772Z,11.79
2023-05-17T06:35:37.502Z,11.82
2023-05-17T06:38:11.959Z,11.78
2023-05-17T06:40:40.348Z,11.80
2023-05-17T06:43:10.573Z,11.76
2023-05-17T06:45:41.422Z,11.79
2023-05-17T06:48:09.496Z,11.81
2023-05-17T06:50:38.209Z,11.83
2023-05-17T06:53:06.149Z,11.86
2023-05-17T06:55:34.899Z,11.89
2023-05-17T06:58:03.532Z,11.81
2023-05-17T07:00:35.271Z,11.77
2023-05-17T07:03:03.183Z,11.78
2023-05-17T07:05:31.884Z,11.83
2023-05-17T07:08:01.280Z,11.83
2023-05-17T07:10:30.040Z,11.83
2023-05-17T07:12:57.867Z,11.80
2023-05-17T07:15:26.849Z,11.83
2023-05-17T07:17:54.716Z,11.78
2023-05-17T07:20:23.367Z,11.77
2023-05-17T07:22:51.357Z,11.76
2023-05-17T07:25:21.581Z,11.79
2023-05-17T07:27:49.561Z,11.83
2023-05-17T07:30:18.164Z,11.91
2023-05-17T07:32:46.416Z,11.91
2023-05-17T07:35:16.536Z,11.82
2023-05-17T07:37:46.501Z,11.88
2023-05-17T07:40:15.035Z,11.88
2023-05-17T07:42:43.315Z,11.90
2023-05-17T07:45:12.099Z,11.91
2023-05-17T07:47:39.979Z,11.91
2023-05-17T07:50:09.387Z,11.90
2023-05-17T07:52:37.805Z,11.90
2023-05-17T07:55:07.007Z,11.89
2023-05-17T07:57:35.307Z,11.87
2023-05-17T08:00:04.913Z,11.82
2023-05-17T08:02:40.151Z,11.80
2023-05-17T08:05:09.432Z,11.72
2023-05-17T08:07:38.042Z,11.82
2023-05-17T08:10:07.553Z,11.92
2023-05-17T08:12:35.603Z,11.93
2023-05-17T08:15:04.192Z,12.00
2023-05-17T08:17:32.591Z,11.99
2023-05-17T08:20:01.303Z,11.96
2023-05-17T08:22:29.461Z,11.95
2023-05-17T08:24:58.177Z,11.91
2023-05-17T08:27:26.778Z,11.89
2023-05-17T08:29:57.972Z,11.97
2023-05-17T08:32:26.712Z,11.91
2023-05-17T08:34:55.384Z,11.91
2023-05-17T08:37:23.444Z,11.86
2023-05-17T08:39:52.431Z,11.81
2023-05-17T08:42:25.563Z,11.86
2023-05-17T08:44:54.984Z,11.88
2023-05-17T08:47:26.584Z,11.95
2023-05-17T08:49:58.012Z,11.96
2023-05-17T08:52:25.792Z,12.01
2023-05-17T08:54:54.336Z,11.98
2023-05-17T08:57:22.910Z,11.84
2023-05-17T08:59:52.706Z,11.72
2023-05-17T09:02:22.262Z,11.69
2023-05-17T09:04:56.075Z,11.63
2023-05-17T09:07:24.461Z,11.60
2023-05-17T09:09:54.143Z,11.59
2023-05-17T09:12:24.816Z,11.56
2023-05-17T09:14:53.977Z,11.57
2023-05-17T09:17:22.486Z,11.52
2023-05-17T09:19:52.183Z,11.45
2023-05-17T09:22:20.384Z,11.44
2023-05-17T09:24:48.400Z,11.38
2023-05-17T09:27:19.023Z,11.37
2023-05-17T09:29:48.651Z,11.41
2023-05-17T09:32:19.100Z,11.25
2023-05-17T09:34:48.838Z,11.33
2023-05-17T09:37:17.607Z,11.37
2023-05-17T09:39:47.960Z,11.31
2023-05-17T09:42:17.074Z,11.26
2023-05-17T09:44:53.605Z,11.20
2023-05-17T09:47:29.876Z,11.22
2023-05-17T09:50:00.853Z,11.17
2023-05-17T09:52:32.323Z,11.25
2023-05-17T09:55:01.724Z,11.30
2023-05-17T09:57:38.269Z,11.31
2023-05-17T10:00:14.107Z,11.35
2023-05-17T10:02:43.683Z,11.39
2023-05-17T10:05:13.230Z,11.47
2023-05-17T10:07:41.642Z,11.44
2023-05-17T10:10:10.468Z,11.46
2023-05-17T10:12:39.464Z,11.38
2023-05-17T10:15:08.941Z,11.43
2023-05-17T10:17:44.707Z,11.49
2023-05-17T10:20:16.020Z,11.54
2023-05-17T10:22:43.958Z,11.51
2023-05-17T10:25:13.001Z,11.61
2023-05-17T10:27:42.212Z,11.54
2023-05-17T10:30:11.787Z,11.60
2023-05-17T10:32:39.935Z,11.57
2023-05-17T10:35:12.258Z,11.64
2023-05-17T10:37:41.736Z,11.66
2023-05-17T10:40:13.779Z,11.65
2023-05-17T10:42:46.005Z,11.61
2023-05-17T10:45:14.630Z,11.50
2023-05-17T10:47:43.922Z,11.45
2023-05-17T10:50:13.804Z,11.48
2023-05-17T10:52:51.773Z,11.47
2023-05-17T10:55:25.513Z,11.53
2023-05-17T10:58:19.325Z,11.57
2023-05-17T11:00:51.681Z,11.63
2023-05-17T11:03:27.092Z,11.65
2023-05-17T11:06:24.533Z,11.73
2023-05-17T11:09:18.937Z,11.72
2023-05-17T11:12:07.393Z,11.82
2023-05-17T11:14:54.938Z,11.77
2023-05-17T11:17:26.501Z,11.71
2023-05-17T11:19:57.808Z,11.71
2023-05-17T11:22:27.753Z,11.72
2023-05-17T11:24:58.117Z,11.78
2023-05-17T11:27:31.062Z,11.78
2023-05-17T11:30:00.703Z,11.82
2023-05-17T11:32:33.638Z,11.84
2023-05-17T11:35:01.885Z,11.86
2023-05-17T11:37:31.494Z,11.78
2023-05-17T11:40:05.333Z,11.87
2023-05-17T11:42:35.847Z,11.83
2023-05-17T11:45:04.526Z,11.87
2023-05-17T11:47:33.709Z,11.94
2023-05-17T11:50:04.471Z,12.00
2023-05-17T11:52:33.242Z,11.88
2023-05-17T11:55:01.177Z,11.81
2023-05-17T11:57:33.382Z,11.84
2023-05-17T12:00:03.164Z,11.87
2023-05-17T12:02:42.777Z,11.89
2023-05-17T12:05:12.588Z,11.97
2023-05-17T12:07:42.739Z,12.01
2023-05-17T12:10:14.103Z,11.93
2023-05-17T12:12:43.299Z,11.98
2023-05-17T12:15:22.640Z,12.02
2023-05-17T12:17:52.328Z,12.12
2023-05-17T12:20:20.723Z,12.16
2023-05-17T12:22:56.851Z,12.13
2023-05-17T12:25:27.941Z,12.09
2023-05-17T12:28:22.916Z,12.14
2023-05-17T12:30:58.150Z,12.14
2023-05-17T12:33:27.041Z,12.21
2023-05-17T12:35:55.289Z,12.25
2023-05-17T12:38:24.466Z,12.34
2023-05-17T12:40:52.327Z,12.30
2023-05-17T12:43:24.792Z,12.50
2023-05-17T12:45:54.340Z,12.50
2023-05-17T12:48:27.159Z,12.59
2023-05-17T12:50:56.501Z,12.63
2023-05-17T12:53:26.435Z,12.55
2023-05-17T12:55:59.263Z,12.55
2023-05-17T12:58:29.507Z,12.55
2023-05-17T13:01:07.574Z,12.62
2023-05-17T13:03:37.057Z,12.68
2023-05-17T13:06:08.692Z,12.63
2023-05-17T13:08:38.227Z,12.56
2023-05-17T13:11:11.919Z,12.48
2023-05-17T13:13:41.750Z,12.50
2023-05-17T13:16:10.760Z,12.61
2023-05-17T13:18:52.857Z,12.66
2023-05-17T13:21:22.932Z,12.67
2023-05-17T13:23:51.570Z,12.64
2023-05-17T13:26:20.247Z,12.70
2023-05-17T13:28:49.431Z,12.65
2023-05-17T13:31:17.917Z,12.80
2023-05-17T13:33:46.670Z,12.77
2023-05-17T13:36:15.158Z,12.86
2023-05-17T13:38:44.039Z,12.86
2023-05-17T13:41:12.658Z,12.79
2023-05-17T13:43:41.335Z,12.73
2023-05-17T13:46:10.496Z,12.70
2023-05-17T13:48:42.490Z,12.64
2023-05-17T13:51:11.268Z,12.52
2023-05-17T13:53:40.035Z,12.40
2023-05-17T13:56:08.492Z,12.47
2023-05-17T13:58:37.052Z,12.52
2023-05-17T14:01:04.919Z,12.61
2023-05-17T14:03:33.708Z,12.65
2023-05-17T14:06:04.318Z,12.73
2023-05-17T14:08:34.038Z,12.77
2023-05-17T14:11:03.054Z,12.80
2023-05-17T14:13:32.200Z,12.86
2023-05-17T14:16:01.030Z,12.90
2023-05-17T14:18:29.822Z,12.89
2023-05-17T14:20:58.332Z,12.81
2023-05-17T14:23:27.152Z,12.74
2023-05-17T14:25:55.129Z,12.57
2023-05-17T14:28:23.652Z,12.40
2023-05-17T14:30:52.092Z,12.33
2023-05-17T14:33:20.877Z,12.35
2023-05-17T14:35:49.160Z,12.33
2023-05-17T14:38:18.557Z,12.38
2023-05-17T14:40:46.718Z,12.37
2023-05-17T14:43:15.398Z,12.40
2023-05-17T14:45:46.219Z,12.38
2023-05-17T14:48:16.971Z,12.29
2023-05-17T14:50:45.909Z,12.27
2023-05-17T14:53:14.571Z,12.33
2023-05-17T14:55:42.926Z,12.32
2023-05-17T14:58:13.921Z,12.33
2023-05-17T15:00:48.485Z,12.26
2023-05-17T15:03:21.715Z,12.26
2023-05-17T15:05:56.076Z,12.25
2023-05-17T15:08:25.016Z,12.23
2023-05-17T15:10:53.964Z,12.16
2023-05-17T15:13:23.276Z,12.17
2023-05-17T15:15:52.773Z,12.21
2023-05-17T15:18:22.640Z,12.18
2023-05-17T15:20:52.561Z,12.20
2023-05-17T15:23:23.069Z,12.16
2023-05-17T15:25:52.249Z,12.18
2023-05-17T15:28:21.512Z,12.20
2023-05-17T15:30:50.297Z,12.18
2023-05-17T15:33:19.653Z,12.17
2023-05-17T15:35:48.388Z,12.13
2023-05-17T15:38:18.788Z,12.15
2023-05-17T15:40:47.584Z,12.15
2023-05-17T15:43:16.898Z,12.18
2023-05-17T15:45:44.758Z,12.16
2023-05-17T15:48:13.806Z,12.11
2023-05-17T15:50:41.819Z,12.09
2023-05-17T15:53:09.991Z,12.12
2023-05-17T15:55:38.156Z,12.12
2023-05-17T15:58:08.716Z,12.10
2023-05-17T16:00:38.498Z,12.10
2023-05-17T16:03:07.247Z,12.14
2023-05-17T16:05:35.263Z,12.07
2023-05-17T16:08:04.084Z,12.17
2023-05-17T16:10:32.298Z,12.23
2023-05-17T16:13:01.584Z,12.15
2023-05-17T16:15:30.314Z,12.20
2023-05-17T16:17:58.986Z,12.21
2023-05-17T16:20:27.505Z,12.25
2023-05-17T16:22:56.375Z,12.21
2023-05-17T16:25:25.661Z,12.12
2023-05-17T16:27:54.081Z,12.12
2023-05-17T16:30:22.164Z,12.16
2023-05-17T16:32:51.473Z,12.14
2023-05-17T16:35:23.069Z,12.19
2023-05-17T16:37:53.300Z,12.18
2023-05-17T16:40:22.116Z,12.13
2023-05-17T16:42:51.564Z,12.10
2023-05-17T16:45:20.136Z,12.14
2023-05-17T16:47:48.530Z,12.07
2023-05-17T16:50:17.973Z,12.10
2023-05-17T16:52:47.296Z,12.11
2023-05-17T16:55:15.232Z,12.07
2023-05-17T16:57:44.233Z,11.98
2023-05-17T17:00:13.109Z,12.00
2023-05-17T17:02:42.123Z,11.99
2023-05-17T17:05:10.762Z,11.97
2023-05-17T17:07:39.144Z,11.99
2023-05-17T17:10:27.925Z,11.85
2023-05-17T17:12:56.648Z,11.87
2023-05-17T17:15:24.686Z,11.88
2023-05-17T17:17:53.854Z,11.89
2023-05-17T17:20:38.893Z,11.88
2023-05-17T17:23:52.664Z,11.85
2023-05-17T17:26:39.760Z,11.77
2023-05-17T17:29:09.519Z,11.73
2023-05-17T17:31:37.824Z,11.67
2023-05-17T17:34:06.962Z,11.69
2023-05-17T17:36:36.104Z,11.62
2023-05-17T17:39:04.811Z,11.58
2023-05-17T17:41:34.439Z,11.59
2023-05-17T17:44:03.822Z,11.56
2023-05-17T17:46:33.592Z,11.56
2023-05-17T17:49:02.326Z,11.51
2023-05-17T17:51:30.248Z,11.52
2023-05-17T17:53:58.563Z,11.46
2023-05-17T17:56:26.913Z,11.50
2023-05-17T17:58:56.394Z,11.46
2023-05-17T18:01:24.781Z,11.43
2023-05-17T18:03:53.634Z,11.40
2023-05-17T18:06:22.626Z,11.34
2023-05-17T18:08:51.854Z,11.31
2023-05-17T18:11:20.415Z,11.21
2023-05-17T18:13:49.861Z,11.15
2023-05-17T18:16:19.260Z,11.18
2023-05-17T18:18:52.184Z,11.13
2023-05-17T18:21:24.882Z,11.08
2023-05-17T18:23:55.257Z,11.08
2023-05-17T18:26:24.692Z,11.04
2023-05-17T18:29:01.642Z,10.98
2023-05-17T18:31:35.256Z,10.98
2023-05-17T18:34:06.023Z,10.92
2023-05-17T18:36:34.661Z,10.92
2023-05-17T18:39:03.490Z,10.89
2023-05-17T18:41:32.110Z,10.91
2023-05-17T18:44:03.130Z,10.92
2023-05-17T18:46:31.894Z,10.94
2023-05-17T18:49:00.892Z,10.93
2023-05-17T18:51:29.625Z,10.94
2023-05-17T18:53:58.224Z,10.92
2023-05-17T18:56:29.284Z,10.94
2023-05-17T18:59:00.085Z,10.91
2023-05-17T19:01:29.713Z,10.95
2023-05-17T19:04:00.025Z,10.97
2023-05-17T19:06:29.982Z,10.98
2023-05-17T19:09:01.567Z,10.96
2023-05-17T19:11:31.621Z,10.94
2023-05-17T19:14:01.401Z,10.90
2023-05-17T19:16:30.745Z,10.98
2023-05-17T19:18:59.570Z,10.94
2023-05-17T19:21:28.278Z,10.91
2023-05-17T19:23:57.523Z,10.90
2023-05-17T19:26:27.573Z,10.83
2023-05-17T19:28:59.293Z,10.81
2023-05-17T19:31:29.689Z,10.76
2023-05-17T19:34:03.146Z,10.73
2023-05-17T19:36:33.575Z,10.69
2023-05-17T19:39:07.703Z,10.70
2023-05-17T19:41:37.712Z,10.71
2023-05-17T19:44:08.658Z,10.66
2023-05-17T19:46:40.634Z,10.58
2023-05-17T19:49:14.371Z,10.61
2023-05-17T19:51:44.572Z,10.61
2023-05-17T19:54:14.507Z,10.58
2023-05-17T19:56:43.749Z,10.52
2023-05-17T19:59:14.768Z,10.56
2023-05-17T20:01:45.944Z,10.52
2023-05-17T20:04:17.854Z,10.49
2023-05-17T20:06:49.443Z,10.47
2023-05-17T20:09:20.840Z,10.44
2023-05-17T20:11:51.919Z,10.39
2023-05-17T20:14:22.889Z,10.36
2023-05-17T20:16:53.221Z,10.35
2023-05-17T20:19:24.513Z,10.34
2023-05-17T20:21:55.234Z,10.29
2023-05-17T20:24:27.032Z,10.28
2023-05-17T20:26:58.897Z,10.23
2023-05-17T20:29:31.609Z,10.26
2023-05-17T20:32:02.295Z,10.20
2023-05-17T20:34:35.481Z,10.14
2023-05-17T20:37:05.897Z,10.19
2023-05-17T20:39:36.305Z,10.13
2023-05-17T20:42:10.932Z,10.12
2023-05-17T20:44:56.224Z,10.07
2023-05-17T20:47:31.478Z,10.07
2023-05-17T20:50:07.712Z,10.04
2023-05-17T20:52:39.951Z,9.94
2023-05-17T20:55:12.546Z,9.91
2023-05-17T20:57:42.676Z,9.89
2023-05-17T21:00:13.322Z,9.85
2023-05-17T21:02:48.555Z,9.79
2023-05-17T21:05:27.205Z,9.80
2023-05-17T21:08:00.947Z,9.77
2023-05-17T21:10:33.415Z,9.72
2023-05-17T21:13:07.908Z,9.72
2023-05-17T21:15:52.401Z,9.75
2023-05-17T21:18:29.435Z,9.69
2023-05-17T21:20:59.589Z,9.63
2023-05-17T21:23:27.341Z,9.66
2023-05-17T21:25:55.792Z,9.58
2023-05-17T21:28:26.332Z,9.50
2023-05-17T21:30:57.827Z,9.43
2023-05-17T21:33:28.160Z,9.35
2023-05-17T21:35:57.159Z,9.35
2023-05-17T21:38:25.151Z,9.35
2023-05-17T21:40:53.753Z,9.34
2023-05-17T21:43:21.947Z,9.26
2023-05-17T21:45:50.972Z,9.18
2023-05-17T21:48:19.006Z,9.19
2023-05-17T21:50:47.362Z,9.17
2023-05-17T21:53:15.818Z,9.10
2023-05-17T21:56:00.713Z,9.11
2023-05-17T21:58:31.514Z,9.00
2023-05-17T22:01:00.844Z,8.87
2023-05-17T22:03:28.901Z,8.91
2023-05-17T22:05:56.729Z,8.80
2023-05-17T22:08:24.789Z,8.71
2023-05-17T22:10:54.601Z,8.60
2023-05-17T22:13:27.170Z,8.58
2023-05-17T22:15:57.884Z,8.57
2023-05-17T22:18:27.470Z,8.54
2023-05-17T22:20:59.647Z,8.41
2023-05-17T22:23:28.367Z,8.39
2023-05-17T22:25:57.409Z,8.41
2023-05-17T22:28:26.062Z,8.29
2023-05-17T22:30:54.780Z,8.29
2023-05-17T22:33:24.122Z,8.18
2023-05-17T22:35:53.772Z,8.13
2023-05-17T22:38:25.480Z,8.08
2023-05-17T22:40:53.598Z,8.06
2023-05-17T22:43:22.063Z,8.00
2023-05-17T22:45:50.785Z,8.03
2023-05-17T22:48:22.866Z,7.96
2023-05-17T22:50:50.991Z,7.90
2023-05-17T22:53:19.671Z,7.93
2023-05-17T22:55:49.484Z,7.92
2023-05-17T22:58:18.992Z,7.89
2023-05-17T23:00:47.826Z,7.85
2023-05-17T23:03:16.644Z,7.87
2023-05-17T23:05:46.157Z,7.81
2023-05-17T23:08:18.253Z,7.85
2023-05-17T23:10:46.330Z,7.86
2023-05-17T23:13:15.389Z,7.87
2023-05-17T23:15:47.108Z,7.86
2023-05-17T23:18:16.348Z,7.87
2023-05-17T23:20:46.008Z,7.83
2023-05-17T23:23:15.810Z,7.82
2023-05-17T23:25:48.675Z,7.86
2023-05-17T23:28:18.878Z,7.84
2023-05-17T23:30:48.933Z,7.87
2023-05-17T23:33:19.326Z,7.86
2023-05-17T23:35:47.560Z,7.87
2023-05-17T23:38:15.770Z,7.82
2023-05-17T23:40:44.238Z,7.89
2023-05-17T23:43:12.269Z,7.89
2023-05-17T23:45:40.389Z,7.86
2023-05-17T23:48:10.059Z,7.76
2023-05-17T23:50:38.328Z,7.80
2023-05-17T23:53:10.070Z,7.77
2023-05-17T23:55:38.801Z,7.82
2023-05-17T23:58:07.531Z,7.77
